Pagina principale
METAR-TAF:

METAR-TAF

Aeroporti :

Aeroporto di Addis Abeba-Bole

Addis Abeba, Etiopia

latitudine: 08-59N, longitudine: 038-48E, altezza: 2355 m

Osservazione

Il bollettino è stato emesso 17 minuti fa, alle 03:00 UTC
Vento 4 kt da nord
Temperature 14°C
Umidità 63%
Pressione 1025 hPa
Visibilità 10 km o più
Nuvoloso ad un'altezza di 2400 ft

METAR: HAAB 160300Z 01004KT 9999 BKN024 14/07 Q1025

Ora: 06:17 (03:17 UTC)

Previsione

Il bollettino è stato emesso 11 ore e 47 minuti fa, alle 15:30 UTC
Previsione valida dal 15 alle 18 UTC al 16 alle 24 UTC
Vento 14 kt da est
Visibilità 10 km o più
Poco nuvoloso ad un'altezza di 3000 ft
Temporaneamente
dal 15 alle 18 UTC al 15 alle 23 UTC
Vento 6 kt da est
Poco nuvoloso ad un'altezza di 3000 ft
Temporaneamente
dal 16 alle 00 UTC al 16 alle 06 UTC
Vento 8 kt da nord-est
Nubi sparse ad un'altezza di 4000 ft

TAF: HAAB 151530Z 1518/1624 09014KT 9999 FEW030 SCT1200 TEMPO 1518/1523 08006KT FEW030 TEMPO 1600/1606 04008KT SCT040

Osservazioni e previsioni meteorologiche di più di 4000 aeroporti (messaggi METAR e TAF).

Le stazioni disponibili sono rappresentate dai dischi gialli e rossi sulla carta.

Puntare il mouse per vedere il nome della stazione.

Clicca sopra per visualizzare le osservazioni e previsioni meteorologiche.

Per cambiare la mappa : fare clic sui pulsanti verdi con una croce nera per ingrandire, il pulsante verde con un trattino per diminuire, o sulla freccia verde per le mappe adiacenti.


METAR-TAF: